sensor_id;sensor_type;location;lat;lon;timestamp;P1;durP1;ratioP1;P2;durP2;ratioP2
18711;SDS011;9485;49.386;8.674;2022-12-17T00:01:23;20.27;;;12.03;;
18711;SDS011;9485;49.386;8.674;2022-12-17T00:07:03;17.13;;;10.40;;
18711;SDS011;9485;49.386;8.674;2022-12-17T00:12:42;18.77;;;11.80;;
18711;SDS011;9485;49.386;8.674;2022-12-17T00:18:22;19.80;;;11.30;;
18711;SDS011;9485;49.386;8.674;2022-12-17T00:24:03;23.10;;;13.43;;
18711;SDS011;9485;49.386;8.674;2022-12-17T00:29:42;21.87;;;13.43;;
18711;SDS011;9485;49.386;8.674;2022-12-17T00:35:20;21.20;;;13.50;;
18711;SDS011;9485;49.386;8.674;2022-12-17T00:41:00;21.93;;;13.83;;
18711;SDS011;9485;49.386;8.674;2022-12-17T00:46:39;18.97;;;13.20;;
18711;SDS011;9485;49.386;8.674;2022-12-17T00:52:18;22.63;;;12.40;;
18711;SDS011;9485;49.386;8.674;2022-12-17T00:57:58;17.73;;;11.10;;
18711;SDS011;9485;49.386;8.674;2022-12-17T01:03:36;24.37;;;12.17;;
18711;SDS011;9485;49.386;8.674;2022-12-17T01:09:14;20.90;;;12.53;;
18711;SDS011;9485;49.386;8.674;2022-12-17T01:14:54;21.40;;;13.23;;
18711;SDS011;9485;49.386;8.674;2022-12-17T01:20:32;22.27;;;14.50;;
18711;SDS011;9485;49.386;8.674;2022-12-17T01:26:11;26.50;;;14.37;;
18711;SDS011;9485;49.386;8.674;2022-12-17T01:31:51;25.07;;;13.57;;
18711;SDS011;9485;49.386;8.674;2022-12-17T01:37:29;21.40;;;12.10;;
18711;SDS011;9485;49.386;8.674;2022-12-17T01:43:08;22.27;;;13.23;;
18711;SDS011;9485;49.386;8.674;2022-12-17T01:48:59;20.83;;;13.13;;
18711;SDS011;9485;49.386;8.674;2022-12-17T01:54:36;20.63;;;13.10;;
18711;SDS011;9485;49.386;8.674;2022-12-17T02:00:16;20.57;;;12.53;;
18711;SDS011;9485;49.386;8.674;2022-12-17T02:05:59;20.57;;;13.33;;
18711;SDS011;9485;49.386;8.674;2022-12-17T02:11:47;22.23;;;12.93;;
18711;SDS011;9485;49.386;8.674;2022-12-17T02:17:37;20.33;;;13.27;;
18711;SDS011;9485;49.386;8.674;2022-12-17T02:23:28;24.17;;;12.37;;
18711;SDS011;9485;49.386;8.674;2022-12-17T02:29:23;25.87;;;13.30;;
18711;SDS011;9485;49.386;8.674;2022-12-17T02:35:06;23.40;;;13.90;;
18711;SDS011;9485;49.386;8.674;2022-12-17T02:40:51;26.50;;;13.97;;
18711;SDS011;9485;49.386;8.674;2022-12-17T02:46:32;20.47;;;12.50;;
18711;SDS011;9485;49.386;8.674;2022-12-17T02:52:13;22.90;;;12.47;;
18711;SDS011;9485;49.386;8.674;2022-12-17T02:57:55;22.10;;;12.70;;
18711;SDS011;9485;49.386;8.674;2022-12-17T03:03:35;21.90;;;13.90;;
18711;SDS011;9485;49.386;8.674;2022-12-17T03:09:14;27.53;;;16.03;;
18711;SDS011;9485;49.386;8.674;2022-12-17T03:14:52;23.90;;;14.17;;
18711;SDS011;9485;49.386;8.674;2022-12-17T03:20:32;23.27;;;14.63;;
18711;SDS011;9485;49.386;8.674;2022-12-17T03:26:10;25.37;;;14.77;;
18711;SDS011;9485;49.386;8.674;2022-12-17T03:31:49;20.17;;;12.77;;
18711;SDS011;9485;49.386;8.674;2022-12-17T03:37:29;22.63;;;13.60;;
18711;SDS011;9485;49.386;8.674;2022-12-17T03:43:06;26.07;;;13.17;;
18711;SDS011;9485;49.386;8.674;2022-12-17T03:48:45;24.33;;;13.70;;
18711;SDS011;9485;49.386;8.674;2022-12-17T03:54:25;25.30;;;12.87;;
18711;SDS011;9485;49.386;8.674;2022-12-17T04:00:04;18.67;;;11.93;;
18711;SDS011;9485;49.386;8.674;2022-12-17T04:05:44;22.83;;;12.50;;
18711;SDS011;9485;49.386;8.674;2022-12-17T04:11:23;24.17;;;12.53;;
18711;SDS011;9485;49.386;8.674;2022-12-17T04:17:02;21.47;;;13.70;;
18711;SDS011;9485;49.386;8.674;2022-12-17T04:22:41;25.63;;;13.70;;
18711;SDS011;9485;49.386;8.674;2022-12-17T04:28:20;22.97;;;14.23;;
18711;SDS011;9485;49.386;8.674;2022-12-17T04:33:58;21.53;;;13.60;;
18711;SDS011;9485;49.386;8.674;2022-12-17T04:39:37;21.93;;;13.00;;
18711;SDS011;9485;49.386;8.674;2022-12-17T04:45:16;29.33;;;14.70;;
18711;SDS011;9485;49.386;8.674;2022-12-17T04:50:53;32.90;;;15.13;;
18711;SDS011;9485;49.386;8.674;2022-12-17T04:56:32;34.13;;;15.97;;
18711;SDS011;9485;49.386;8.674;2022-12-17T05:02:11;25.57;;;13.37;;
18711;SDS011;9485;49.386;8.674;2022-12-17T05:07:51;20.30;;;12.17;;
18711;SDS011;9485;49.386;8.674;2022-12-17T05:13:30;21.63;;;12.80;;
18711;SDS011;9485;49.386;8.674;2022-12-17T05:19:09;21.40;;;11.70;;
18711;SDS011;9485;49.386;8.674;2022-12-17T05:24:47;20.13;;;11.77;;
18711;SDS011;9485;49.386;8.674;2022-12-17T05:30:26;23.23;;;11.10;;
18711;SDS011;9485;49.386;8.674;2022-12-17T05:36:06;20.37;;;11.10;;
18711;SDS011;9485;49.386;8.674;2022-12-17T05:41:44;21.77;;;10.97;;
18711;SDS011;9485;49.386;8.674;2022-12-17T05:47:22;16.37;;;10.27;;
18711;SDS011;9485;49.386;8.674;2022-12-17T05:53:03;23.00;;;10.87;;
18711;SDS011;9485;49.386;8.674;2022-12-17T05:58:42;20.00;;;11.70;;
18711;SDS011;9485;49.386;8.674;2022-12-17T06:04:20;19.33;;;10.73;;
18711;SDS011;9485;49.386;8.674;2022-12-17T06:10:00;22.83;;;12.23;;
18711;SDS011;9485;49.386;8.674;2022-12-17T06:15:39;24.73;;;13.07;;
18711;SDS011;9485;49.386;8.674;2022-12-17T06:21:17;23.00;;;13.00;;
18711;SDS011;9485;49.386;8.674;2022-12-17T06:26:57;27.23;;;14.00;;
18711;SDS011;9485;49.386;8.674;2022-12-17T06:32:36;22.67;;;13.00;;
18711;SDS011;9485;49.386;8.674;2022-12-17T06:38:14;19.93;;;13.00;;
18711;SDS011;9485;49.386;8.674;2022-12-17T06:43:59;21.77;;;12.23;;
18711;SDS011;9485;49.386;8.674;2022-12-17T06:49:46;27.73;;;14.57;;
18711;SDS011;9485;49.386;8.674;2022-12-17T06:55:24;26.13;;;13.87;;
18711;SDS011;9485;49.386;8.674;2022-12-17T07:01:04;24.70;;;13.97;;
18711;SDS011;9485;49.386;8.674;2022-12-17T07:06:42;20.17;;;12.53;;
18711;SDS011;9485;49.386;8.674;2022-12-17T07:12:20;21.17;;;12.97;;
18711;SDS011;9485;49.386;8.674;2022-12-17T07:18:01;19.93;;;13.10;;
18711;SDS011;9485;49.386;8.674;2022-12-17T07:23:40;23.63;;;12.00;;
18711;SDS011;9485;49.386;8.674;2022-12-17T07:31:52;21.83;;;12.33;;
18711;SDS011;9485;49.386;8.674;2022-12-17T07:37:30;21.27;;;12.03;;
18711;SDS011;9485;49.386;8.674;2022-12-17T07:43:09;23.90;;;12.50;;
18711;SDS011;9485;49.386;8.674;2022-12-17T07:48:50;23.23;;;12.17;;
18711;SDS011;9485;49.386;8.674;2022-12-17T07:54:28;23.87;;;13.27;;
18711;SDS011;9485;49.386;8.674;2022-12-17T08:00:08;25.47;;;12.83;;
18711;SDS011;9485;49.386;8.674;2022-12-17T08:05:49;20.13;;;12.53;;
18711;SDS011;9485;49.386;8.674;2022-12-17T08:11:27;20.73;;;11.93;;
18711;SDS011;9485;49.386;8.674;2022-12-17T08:17:06;20.33;;;12.47;;
18711;SDS011;9485;49.386;8.674;2022-12-17T08:22:46;25.03;;;12.20;;
18711;SDS011;9485;49.386;8.674;2022-12-17T08:28:24;21.80;;;12.70;;
18711;SDS011;9485;49.386;8.674;2022-12-17T08:34:03;21.60;;;13.27;;
18711;SDS011;9485;49.386;8.674;2022-12-17T08:39:43;23.07;;;13.10;;
18711;SDS011;9485;49.386;8.674;2022-12-17T08:45:22;34.93;;;14.83;;
18711;SDS011;9485;49.386;8.674;2022-12-17T08:51:00;22.50;;;14.53;;
18711;SDS011;9485;49.386;8.674;2022-12-17T08:56:40;27.47;;;14.30;;
18711;SDS011;9485;49.386;8.674;2022-12-17T09:02:18;24.47;;;13.83;;
18711;SDS011;9485;49.386;8.674;2022-12-17T09:07:58;22.17;;;12.00;;
18711;SDS011;9485;49.386;8.674;2022-12-17T09:13:39;27.17;;;13.43;;
18711;SDS011;9485;49.386;8.674;2022-12-17T09:19:17;20.57;;;12.70;;
18711;SDS011;9485;49.386;8.674;2022-12-17T09:24:56;24.17;;;13.03;;
18711;SDS011;9485;49.386;8.674;2022-12-17T09:30:36;24.00;;;12.87;;
18711;SDS011;9485;49.386;8.674;2022-12-17T09:36:14;23.90;;;12.33;;
18711;SDS011;9485;49.386;8.674;2022-12-17T09:41:51;21.03;;;11.87;;
18711;SDS011;9485;49.386;8.674;2022-12-17T09:47:40;27.77;;;12.90;;
18711;SDS011;9485;49.386;8.674;2022-12-17T09:53:34;24.37;;;13.10;;
18711;SDS011;9485;49.386;8.674;2022-12-17T09:59:19;22.23;;;12.63;;
18711;SDS011;9485;49.386;8.674;2022-12-17T10:05:01;24.87;;;14.00;;
18711;SDS011;9485;49.386;8.674;2022-12-17T10:10:44;26.77;;;14.33;;
18711;SDS011;9485;49.386;8.674;2022-12-17T10:16:24;23.53;;;14.70;;
18711;SDS011;9485;49.386;8.674;2022-12-17T10:22:08;26.47;;;14.00;;
18711;SDS011;9485;49.386;8.674;2022-12-17T10:27:49;23.30;;;14.30;;
18711;SDS011;9485;49.386;8.674;2022-12-17T10:33:28;22.77;;;13.40;;
18711;SDS011;9485;49.386;8.674;2022-12-17T10:39:17;29.67;;;15.33;;
18711;SDS011;9485;49.386;8.674;2022-12-17T10:44:59;25.03;;;13.73;;
18711;SDS011;9485;49.386;8.674;2022-12-17T10:50:54;24.17;;;12.87;;
18711;SDS011;9485;49.386;8.674;2022-12-17T10:56:42;26.00;;;12.77;;
18711;SDS011;9485;49.386;8.674;2022-12-17T11:02:29;30.30;;;15.73;;
18711;SDS011;9485;49.386;8.674;2022-12-17T11:08:08;25.60;;;15.43;;
18711;SDS011;9485;49.386;8.674;2022-12-17T11:13:51;30.00;;;15.63;;
18711;SDS011;9485;49.386;8.674;2022-12-17T11:19:30;31.47;;;16.70;;
18711;SDS011;9485;49.386;8.674;2022-12-17T11:25:21;31.63;;;16.77;;
18711;SDS011;9485;49.386;8.674;2022-12-17T11:31:29;36.80;;;18.17;;
18711;SDS011;9485;49.386;8.674;2022-12-17T11:37:25;36.80;;;20.77;;
18711;SDS011;9485;49.386;8.674;2022-12-17T11:43:12;41.63;;;19.57;;
18711;SDS011;9485;49.386;8.674;2022-12-17T11:49:04;35.00;;;17.63;;
18711;SDS011;9485;49.386;8.674;2022-12-17T11:54:58;36.30;;;18.20;;
18711;SDS011;9485;49.386;8.674;2022-12-17T12:00:50;41.60;;;22.07;;
18711;SDS011;9485;49.386;8.674;2022-12-17T12:06:48;34.07;;;19.33;;
18711;SDS011;9485;49.386;8.674;2022-12-17T12:12:43;40.10;;;22.40;;
18711;SDS011;9485;49.386;8.674;2022-12-17T12:18:39;38.67;;;22.37;;
18711;SDS011;9485;49.386;8.674;2022-12-17T12:30:38;34.23;;;19.80;;
18711;SDS011;9485;49.386;8.674;2022-12-17T12:36:28;33.53;;;18.60;;
18711;SDS011;9485;49.386;8.674;2022-12-17T12:42:13;37.80;;;19.83;;
18711;SDS011;9485;49.386;8.674;2022-12-17T12:48:02;31.30;;;19.00;;
18711;SDS011;9485;49.386;8.674;2022-12-17T12:53:55;35.80;;;18.67;;
18711;SDS011;9485;49.386;8.674;2022-12-17T12:59:35;36.10;;;19.23;;
18711;SDS011;9485;49.386;8.674;2022-12-17T13:05:30;40.93;;;21.80;;
18711;SDS011;9485;49.386;8.674;2022-12-17T13:10:57;52.80;;;24.37;;
18711;SDS011;9485;49.386;8.674;2022-12-17T13:16:49;47.00;;;24.80;;
18711;SDS011;9485;49.386;8.674;2022-12-17T13:22:26;41.67;;;21.93;;
18711;SDS011;9485;49.386;8.674;2022-12-17T13:27:49;39.50;;;20.73;;
18711;SDS011;9485;49.386;8.674;2022-12-17T13:33:20;54.90;;;26.37;;
18711;SDS011;9485;49.386;8.674;2022-12-17T13:38:50;52.63;;;24.77;;
18711;SDS011;9485;49.386;8.674;2022-12-17T13:44:22;52.73;;;27.07;;
18711;SDS011;9485;49.386;8.674;2022-12-17T13:52:01;39.17;;;21.03;;
18711;SDS011;9485;49.386;8.674;2022-12-17T13:57:24;44.10;;;21.63;;
18711;SDS011;9485;49.386;8.674;2022-12-17T14:02:45;46.77;;;21.37;;
18711;SDS011;9485;49.386;8.674;2022-12-17T14:08:08;43.90;;;19.93;;
18711;SDS011;9485;49.386;8.674;2022-12-17T14:13:36;44.47;;;20.40;;
18711;SDS011;9485;49.386;8.674;2022-12-17T14:18:57;31.23;;;17.03;;
18711;SDS011;9485;49.386;8.674;2022-12-17T14:24:21;42.30;;;19.93;;
18711;SDS011;9485;49.386;8.674;2022-12-17T14:29:46;34.80;;;17.90;;
18711;SDS011;9485;49.386;8.674;2022-12-17T14:35:21;35.43;;;18.03;;
18711;SDS011;9485;49.386;8.674;2022-12-17T14:40:47;44.63;;;20.33;;
18711;SDS011;9485;49.386;8.674;2022-12-17T14:46:09;32.37;;;16.90;;
18711;SDS011;9485;49.386;8.674;2022-12-17T14:51:40;37.40;;;18.30;;
18711;SDS011;9485;49.386;8.674;2022-12-17T14:57:04;39.13;;;18.83;;
18711;SDS011;9485;49.386;8.674;2022-12-17T15:02:26;42.67;;;19.60;;
18711;SDS011;9485;49.386;8.674;2022-12-17T15:07:48;44.97;;;20.93;;
18711;SDS011;9485;49.386;8.674;2022-12-17T15:13:11;45.13;;;21.73;;
18711;SDS011;9485;49.386;8.674;2022-12-17T15:18:32;45.27;;;21.97;;
18711;SDS011;9485;49.386;8.674;2022-12-17T15:23:53;44.20;;;21.13;;
18711;SDS011;9485;49.386;8.674;2022-12-17T15:29:15;39.07;;;20.43;;
18711;SDS011;9485;49.386;8.674;2022-12-17T15:34:36;44.50;;;22.00;;
18711;SDS011;9485;49.386;8.674;2022-12-17T15:39:56;45.37;;;20.97;;
18711;SDS011;9485;49.386;8.674;2022-12-17T15:45:18;40.80;;;20.07;;
18711;SDS011;9485;49.386;8.674;2022-12-17T15:50:39;41.37;;;21.23;;
18711;SDS011;9485;49.386;8.674;2022-12-17T15:56:00;38.13;;;19.57;;
18711;SDS011;9485;49.386;8.674;2022-12-17T16:01:22;43.83;;;20.60;;
18711;SDS011;9485;49.386;8.674;2022-12-17T16:06:43;39.77;;;20.73;;
18711;SDS011;9485;49.386;8.674;2022-12-17T16:12:03;45.00;;;21.90;;
18711;SDS011;9485;49.386;8.674;2022-12-17T16:17:26;37.43;;;20.43;;
18711;SDS011;9485;49.386;8.674;2022-12-17T16:22:46;40.13;;;21.37;;
18711;SDS011;9485;49.386;8.674;2022-12-17T16:28:08;40.63;;;19.90;;
18711;SDS011;9485;49.386;8.674;2022-12-17T16:33:31;38.30;;;19.80;;
18711;SDS011;9485;49.386;8.674;2022-12-17T16:38:53;43.27;;;21.40;;
18711;SDS011;9485;49.386;8.674;2022-12-17T16:44:14;54.80;;;23.57;;
18711;SDS011;9485;49.386;8.674;2022-12-17T16:49:36;42.43;;;21.50;;
18711;SDS011;9485;49.386;8.674;2022-12-17T16:54:57;48.53;;;23.07;;
18711;SDS011;9485;49.386;8.674;2022-12-17T17:00:17;43.23;;;21.37;;
18711;SDS011;9485;49.386;8.674;2022-12-17T17:05:40;44.50;;;21.00;;
18711;SDS011;9485;49.386;8.674;2022-12-17T17:11:05;41.70;;;21.03;;
18711;SDS011;9485;49.386;8.674;2022-12-17T17:16:28;36.57;;;19.20;;
18711;SDS011;9485;49.386;8.674;2022-12-17T17:21:51;42.00;;;19.93;;
18711;SDS011;9485;49.386;8.674;2022-12-17T17:27:13;42.17;;;20.37;;
18711;SDS011;9485;49.386;8.674;2022-12-17T17:32:34;42.17;;;19.93;;
18711;SDS011;9485;49.386;8.674;2022-12-17T17:37:56;41.40;;;21.37;;
18711;SDS011;9485;49.386;8.674;2022-12-17T17:43:16;37.50;;;19.83;;
18711;SDS011;9485;49.386;8.674;2022-12-17T17:48:37;45.13;;;20.10;;
18711;SDS011;9485;49.386;8.674;2022-12-17T17:54:02;37.97;;;19.77;;
18711;SDS011;9485;49.386;8.674;2022-12-17T17:59:23;41.67;;;21.03;;
18711;SDS011;9485;49.386;8.674;2022-12-17T18:04:44;50.40;;;22.97;;
18711;SDS011;9485;49.386;8.674;2022-12-17T18:10:07;39.63;;;19.27;;
18711;SDS011;9485;49.386;8.674;2022-12-17T18:15:28;35.30;;;18.63;;
18711;SDS011;9485;49.386;8.674;2022-12-17T18:21:00;36.73;;;19.67;;
18711;SDS011;9485;49.386;8.674;2022-12-17T18:26:24;37.30;;;18.83;;
18711;SDS011;9485;49.386;8.674;2022-12-17T18:31:46;42.13;;;20.67;;
18711;SDS011;9485;49.386;8.674;2022-12-17T18:37:09;49.83;;;23.73;;
18711;SDS011;9485;49.386;8.674;2022-12-17T18:42:31;47.50;;;21.67;;
18711;SDS011;9485;49.386;8.674;2022-12-17T18:48:10;41.30;;;18.77;;
18711;SDS011;9485;49.386;8.674;2022-12-17T18:53:30;49.20;;;24.93;;
18711;SDS011;9485;49.386;8.674;2022-12-17T18:58:52;39.87;;;19.03;;
18711;SDS011;9485;49.386;8.674;2022-12-17T19:06:54;38.93;;;20.83;;
18711;SDS011;9485;49.386;8.674;2022-12-17T19:12:15;41.77;;;22.33;;
18711;SDS011;9485;49.386;8.674;2022-12-17T19:17:36;42.23;;;20.70;;
18711;SDS011;9485;49.386;8.674;2022-12-17T19:22:58;41.23;;;21.30;;
18711;SDS011;9485;49.386;8.674;2022-12-17T19:28:19;34.80;;;18.90;;
18711;SDS011;9485;49.386;8.674;2022-12-17T19:33:39;41.90;;;19.57;;
18711;SDS011;9485;49.386;8.674;2022-12-17T19:39:03;37.27;;;21.03;;
18711;SDS011;9485;49.386;8.674;2022-12-17T19:44:26;43.20;;;19.37;;
18711;SDS011;9485;49.386;8.674;2022-12-17T19:49:46;46.97;;;23.53;;
18711;SDS011;9485;49.386;8.674;2022-12-17T19:55:12;44.83;;;21.30;;
18711;SDS011;9485;49.386;8.674;2022-12-17T20:00:33;43.30;;;22.37;;
18711;SDS011;9485;49.386;8.674;2022-12-17T20:05:55;36.67;;;20.30;;
18711;SDS011;9485;49.386;8.674;2022-12-17T20:11:17;39.10;;;21.40;;
18711;SDS011;9485;49.386;8.674;2022-12-17T20:16:54;44.77;;;22.13;;
18711;SDS011;9485;49.386;8.674;2022-12-17T20:22:17;35.87;;;19.43;;
18711;SDS011;9485;49.386;8.674;2022-12-17T20:27:39;45.37;;;22.00;;
18711;SDS011;9485;49.386;8.674;2022-12-17T20:33:01;43.13;;;20.97;;
18711;SDS011;9485;49.386;8.674;2022-12-17T20:38:21;42.43;;;21.13;;
18711;SDS011;9485;49.386;8.674;2022-12-17T20:43:44;42.60;;;21.67;;
18711;SDS011;9485;49.386;8.674;2022-12-17T20:49:06;39.73;;;20.37;;
18711;SDS011;9485;49.386;8.674;2022-12-17T20:54:27;42.77;;;20.53;;
18711;SDS011;9485;49.386;8.674;2022-12-17T20:59:49;53.90;;;24.60;;
18711;SDS011;9485;49.386;8.674;2022-12-17T21:05:09;40.67;;;20.53;;
18711;SDS011;9485;49.386;8.674;2022-12-17T21:10:33;59.40;;;26.83;;
18711;SDS011;9485;49.386;8.674;2022-12-17T21:15:55;46.07;;;22.47;;
18711;SDS011;9485;49.386;8.674;2022-12-17T21:21:18;43.70;;;23.30;;
18711;SDS011;9485;49.386;8.674;2022-12-17T21:26:41;43.23;;;22.57;;
18711;SDS011;9485;49.386;8.674;2022-12-17T21:32:05;41.93;;;20.97;;
18711;SDS011;9485;49.386;8.674;2022-12-17T21:37:25;46.03;;;22.83;;
18711;SDS011;9485;49.386;8.674;2022-12-17T21:42:46;40.73;;;20.53;;
18711;SDS011;9485;49.386;8.674;2022-12-17T21:48:23;40.93;;;19.77;;
18711;SDS011;9485;49.386;8.674;2022-12-17T21:53:45;50.87;;;24.03;;
18711;SDS011;9485;49.386;8.674;2022-12-17T21:59:05;46.17;;;25.23;;
18711;SDS011;9485;49.386;8.674;2022-12-17T22:04:27;47.80;;;25.00;;
18711;SDS011;9485;49.386;8.674;2022-12-17T22:09:48;48.93;;;24.83;;
18711;SDS011;9485;49.386;8.674;2022-12-17T22:15:09;44.90;;;23.00;;
18711;SDS011;9485;49.386;8.674;2022-12-17T22:20:31;45.90;;;23.13;;
18711;SDS011;9485;49.386;8.674;2022-12-17T22:25:52;52.00;;;23.67;;
18711;SDS011;9485;49.386;8.674;2022-12-17T22:31:13;51.80;;;23.43;;
18711;SDS011;9485;49.386;8.674;2022-12-17T22:36:55;52.83;;;24.57;;
18711;SDS011;9485;49.386;8.674;2022-12-17T22:42:16;46.93;;;22.70;;
18711;SDS011;9485;49.386;8.674;2022-12-17T22:47:54;49.13;;;23.60;;
18711;SDS011;9485;49.386;8.674;2022-12-17T22:53:17;42.17;;;20.80;;
18711;SDS011;9485;49.386;8.674;2022-12-17T22:58:38;44.00;;;20.47;;
18711;SDS011;9485;49.386;8.674;2022-12-17T23:03:59;44.27;;;20.53;;
18711;SDS011;9485;49.386;8.674;2022-12-17T23:09:22;43.23;;;21.20;;
18711;SDS011;9485;49.386;8.674;2022-12-17T23:14:43;38.30;;;19.13;;
18711;SDS011;9485;49.386;8.674;2022-12-17T23:20:04;40.60;;;18.73;;
18711;SDS011;9485;49.386;8.674;2022-12-17T23:25:27;38.33;;;18.63;;
18711;SDS011;9485;49.386;8.674;2022-12-17T23:30:48;40.27;;;19.87;;
18711;SDS011;9485;49.386;8.674;2022-12-17T23:36:09;32.93;;;17.90;;
18711;SDS011;9485;49.386;8.674;2022-12-17T23:41:33;35.40;;;18.07;;
18711;SDS011;9485;49.386;8.674;2022-12-17T23:46:55;42.10;;;20.23;;
18711;SDS011;9485;49.386;8.674;2022-12-17T23:52:16;46.60;;;21.93;;
18711;SDS011;9485;49.386;8.674;2022-12-17T23:57:38;43.23;;;19.13;;
